Date,TemperatureHighF,TemperatureAvgF,TemperatureLowF,DewpointHighF,DewpointAvgF,DewpointLowF,HumidityHigh,HumidityAvg,HumidityLow,PressureMaxIn,PressureMinIn,WindSpeedMaxMPH,WindSpeedAvgMPH,GustSpeedMaxMPH,PrecipitationSumIn
2013-3-1,35.6,35.5,35.3,29.5,29.4,29.3,79,79,78,29.19,29.18,0,0,0,0.00
2013-3-2,39.8,38.9,38.0,31.8,31.0,30.1,73,73,73,29.18,29.18,0,0,0,0.00
2013-3-3,35.3,35.1,34.7,28.1,27.6,26.9,75,74,73,29.09,29.09,0,0,0,0.00
2013-3-4,39.6,39.6,39.6,25.1,25.1,25.1,56,56,56,29.07,29.07,0,0,0,0.00
2013-3-5,43.4,42.5,41.6,34.3,33.7,33.0,71,70,70,29.54,29.53,0,0,0,0.00
2013-3-6,35.6,35.2,34.7,32.3,31.4,30.6,89,86,82,29.63,29.59,0,0,0,0.00
2013-3-7,36.0,33.6,31.1,30.8,29.9,29.3,93,86,77,29.61,29.55,0,0,0,0.00
2013-3-8,39.4,36.9,29.9,30.7,28.8,25.5,94,73,60,29.66,29.51,0,0,0,0.00
2013-3-9,61.9,38.2,26.3,37.6,26.8,22.1,84,65,38,29.87,29.66,0,0,0,0.00
2013-3-10,60.3,35.1,22.7,39.3,27.8,19.4,89,76,44,29.93,29.85,0,0,0,0.00
2013-3-11,50.0,48.8,46.8,39.2,39.0,38.3,72,69,66,29.68,29.67,0,0,0,0.00
2013-3-12,50.6,49.8,48.4,48.9,47.2,46.0,94,91,86,29.42,29.24,0,0,0,0.00
2013-3-13,33.3,33.3,33.3,23.5,23.5,23.5,67,67,67,29.28,29.28,0,0,0,0.00
2013-3-16,31.7,31.0,30.2,16.8,16.8,16.7,57,56,54,29.39,29.39,0,0,0,0.00
2013-3-17,44.6,31.0,21.2,16.6,10.9,4.1,73,46,23,29.83,29.40,0,0,0,0.00
2013-3-18,48.2,29.3,15.8,22.3,11.5,1.3,71,48,32,29.97,29.78,0,0,0,0.00
2013-3-19,33.5,31.0,27.7,31.6,27.4,22.3,93,87,71,29.78,29.12,0,0,0,0.00
2013-3-20,41.8,31.2,24.8,28.7,24.2,20.0,92,77,51,29.32,29.19,0,0,0,0.00
2013-3-21,42.3,30.6,21.1,26.1,22.1,17.4,86,72,43,29.32,29.13,0,0,0,0.00
2013-3-22,33.1,30.5,27.7,25.1,23.3,21.5,86,75,62,29.23,29.11,0,0,0,0.00
2013-3-23,38.5,37.0,34.2,21.3,20.4,19.5,57,51,46,29.27,29.22,0,0,0,0.00
2013-3-24,56.2,43.6,33.7,28.9,25.8,20.8,70,51,34,29.31,29.24,0,0,0,0.00
2013-3-25,46.1,38.1,28.8,36.9,31.6,24.3,83,77,70,29.23,29.06,0,0,0,0.00
2013-3-26,57.8,41.4,32.0,30.9,25.8,21.5,84,57,29,29.28,29.05,0,0,0,0.00
2013-3-27,51.8,37.0,27.9,32.7,25.4,21.2,78,64,40,29.38,29.27,0,0,0,0.00
2013-3-28,47.9,44.9,40.0,34.3,33.3,32.0,73,64,59,29.47,29.37,0,0,0,0.00
2013-3-29,58.1,54.1,48.2,36.3,35.0,33.2,56,49,44,29.52,29.50,0,0,0,0.00
2013-3-30,43.4,39.0,36.4,29.5,26.8,25.4,76,62,52,29.61,29.57,0,0,0,0.00
2013-3-31,53.1,42.8,29.0,35.3,30.7,23.9,81,64,46,29.63,29.34,0,0,0,0.00